sensor_id;sensor_type;location;lat;lon;timestamp;P1;durP1;ratioP1;P2;durP2;ratioP2
55794;SDS011;41716;51.910;4.430;2023-05-18T00:02:21;4.55;;;1.00;;
55794;SDS011;41716;51.910;4.430;2023-05-18T00:07:25;4.60;;;0.85;;
55794;SDS011;41716;51.910;4.430;2023-05-18T00:12:30;3.70;;;0.95;;
55794;SDS011;41716;51.910;4.430;2023-05-18T00:17:32;3.92;;;0.88;;
55794;SDS011;41716;51.910;4.430;2023-05-18T00:22:33;3.15;;;1.00;;
55794;SDS011;41716;51.910;4.430;2023-05-18T00:27:36;3.53;;;1.00;;
55794;SDS011;41716;51.910;4.430;2023-05-18T00:32:38;3.95;;;0.98;;
55794;SDS011;41716;51.910;4.430;2023-05-18T00:37:39;5.28;;;0.95;;
55794;SDS011;41716;51.910;4.430;2023-05-18T00:42:42;3.33;;;1.23;;
55794;SDS011;41716;51.910;4.430;2023-05-18T00:47:44;3.78;;;0.88;;
55794;SDS011;41716;51.910;4.430;2023-05-18T00:52:46;3.92;;;1.10;;
55794;SDS011;41716;51.910;4.430;2023-05-18T00:57:49;4.57;;;0.88;;
55794;SDS011;41716;51.910;4.430;2023-05-18T01:02:51;1.93;;;0.80;;
55794;SDS011;41716;51.910;4.430;2023-05-18T01:07:52;3.15;;;1.00;;
55794;SDS011;41716;51.910;4.430;2023-05-18T01:12:58;3.63;;;0.90;;
55794;SDS011;41716;51.910;4.430;2023-05-18T01:18:08;2.13;;;0.90;;
55794;SDS011;41716;51.910;4.430;2023-05-18T01:29:04;1.92;;;0.80;;
55794;SDS011;41716;51.910;4.430;2023-05-18T01:34:09;3.75;;;0.98;;
55794;SDS011;41716;51.910;4.430;2023-05-18T01:39:10;3.33;;;0.80;;
55794;SDS011;41716;51.910;4.430;2023-05-18T01:44:16;4.53;;;0.82;;
55794;SDS011;41716;51.910;4.430;2023-05-18T01:49:23;4.22;;;0.98;;
55794;SDS011;41716;51.910;4.430;2023-05-18T01:54:29;4.18;;;0.90;;
55794;SDS011;41716;51.910;4.430;2023-05-18T01:59:33;5.83;;;0.97;;
55794;SDS011;41716;51.910;4.430;2023-05-18T02:04:36;5.60;;;1.20;;
55794;SDS011;41716;51.910;4.430;2023-05-18T02:09:38;2.50;;;0.90;;
55794;SDS011;41716;51.910;4.430;2023-05-18T02:14:41;4.35;;;0.90;;
55794;SDS011;41716;51.910;4.430;2023-05-18T02:19:43;2.70;;;0.67;;
55794;SDS011;41716;51.910;4.430;2023-05-18T02:24:44;2.35;;;0.57;;
55794;SDS011;41716;51.910;4.430;2023-05-18T02:29:47;2.88;;;0.70;;
55794;SDS011;41716;51.910;4.430;2023-05-18T02:34:50;1.63;;;0.60;;
55794;SDS011;41716;51.910;4.430;2023-05-18T02:39:52;5.05;;;0.77;;
55794;SDS011;41716;51.910;4.430;2023-05-18T02:44:56;4.03;;;0.60;;
55794;SDS011;41716;51.910;4.430;2023-05-18T02:49:57;3.33;;;0.73;;
55794;SDS011;41716;51.910;4.430;2023-05-18T02:54:59;4.05;;;0.70;;
55794;SDS011;41716;51.910;4.430;2023-05-18T03:00:02;2.72;;;0.85;;
55794;SDS011;41716;51.910;4.430;2023-05-18T03:05:09;5.43;;;0.80;;
55794;SDS011;41716;51.910;4.430;2023-05-18T03:10:11;4.00;;;0.90;;
55794;SDS011;41716;51.910;4.430;2023-05-18T03:15:14;5.22;;;0.70;;
55794;SDS011;41716;51.910;4.430;2023-05-18T03:20:16;3.22;;;0.75;;
55794;SDS011;41716;51.910;4.430;2023-05-18T03:25:18;3.65;;;1.05;;
55794;SDS011;41716;51.910;4.430;2023-05-18T03:30:22;5.60;;;0.80;;
55794;SDS011;41716;51.910;4.430;2023-05-18T03:35:24;3.08;;;1.00;;
55794;SDS011;41716;51.910;4.430;2023-05-18T03:40:26;3.63;;;0.63;;
55794;SDS011;41716;51.910;4.430;2023-05-18T03:45:29;2.58;;;0.63;;
55794;SDS011;41716;51.910;4.430;2023-05-18T03:50:31;5.43;;;0.80;;
55794;SDS011;41716;51.910;4.430;2023-05-18T03:55:32;4.57;;;0.60;;
55794;SDS011;41716;51.910;4.430;2023-05-18T04:00:35;4.85;;;1.00;;
55794;SDS011;41716;51.910;4.430;2023-05-18T04:05:37;4.55;;;0.77;;
55794;SDS011;41716;51.910;4.430;2023-05-18T04:10:40;6.05;;;0.80;;
55794;SDS011;41716;51.910;4.430;2023-05-18T04:15:43;4.05;;;0.73;;
55794;SDS011;41716;51.910;4.430;2023-05-18T04:20:44;3.10;;;0.73;;
55794;SDS011;41716;51.910;4.430;2023-05-18T04:25:46;6.00;;;1.13;;
55794;SDS011;41716;51.910;4.430;2023-05-18T04:30:49;4.45;;;1.02;;
55794;SDS011;41716;51.910;4.430;2023-05-18T04:35:51;7.07;;;1.00;;
55794;SDS011;41716;51.910;4.430;2023-05-18T04:40:54;3.20;;;0.70;;
55794;SDS011;41716;51.910;4.430;2023-05-18T04:45:58;2.72;;;0.70;;
55794;SDS011;41716;51.910;4.430;2023-05-18T04:51:00;7.95;;;0.80;;
55794;SDS011;41716;51.910;4.430;2023-05-18T04:56:03;2.38;;;0.90;;
55794;SDS011;41716;51.910;4.430;2023-05-18T05:01:07;3.90;;;0.95;;
55794;SDS011;41716;51.910;4.430;2023-05-18T05:06:09;4.63;;;0.70;;
55794;SDS011;41716;51.910;4.430;2023-05-18T05:11:10;5.28;;;1.17;;
55794;SDS011;41716;51.910;4.430;2023-05-18T05:16:13;2.72;;;0.95;;
55794;SDS011;41716;51.910;4.430;2023-05-18T05:21:15;2.60;;;0.73;;
55794;SDS011;41716;51.910;4.430;2023-05-18T05:26:17;4.18;;;0.75;;
55794;SDS011;41716;51.910;4.430;2023-05-18T05:31:21;3.80;;;0.90;;
55794;SDS011;41716;51.910;4.430;2023-05-18T05:36:23;4.93;;;0.88;;
55794;SDS011;41716;51.910;4.430;2023-05-18T05:41:25;3.63;;;0.80;;
55794;SDS011;41716;51.910;4.430;2023-05-18T05:46:28;3.33;;;0.80;;
55794;SDS011;41716;51.910;4.430;2023-05-18T05:51:29;4.25;;;0.95;;
55794;SDS011;41716;51.910;4.430;2023-05-18T05:56:31;5.78;;;1.02;;
55794;SDS011;41716;51.910;4.430;2023-05-18T06:01:34;5.13;;;0.70;;
55794;SDS011;41716;51.910;4.430;2023-05-18T06:06:36;4.93;;;0.73;;
55794;SDS011;41716;51.910;4.430;2023-05-18T06:11:38;5.18;;;0.90;;
55794;SDS011;41716;51.910;4.430;2023-05-18T06:16:41;4.50;;;0.60;;
55794;SDS011;41716;51.910;4.430;2023-05-18T06:21:43;4.85;;;0.85;;
55794;SDS011;41716;51.910;4.430;2023-05-18T06:26:45;4.85;;;0.77;;
55794;SDS011;41716;51.910;4.430;2023-05-18T06:31:48;4.60;;;0.90;;
55794;SDS011;41716;51.910;4.430;2023-05-18T06:36:49;4.03;;;1.00;;
55794;SDS011;41716;51.910;4.430;2023-05-18T06:41:51;6.93;;;1.13;;
55794;SDS011;41716;51.910;4.430;2023-05-18T06:46:54;3.78;;;0.77;;
55794;SDS011;41716;51.910;4.430;2023-05-18T06:51:56;4.40;;;1.10;;
55794;SDS011;41716;51.910;4.430;2023-05-18T06:56:57;3.83;;;1.00;;
55794;SDS011;41716;51.910;4.430;2023-05-18T07:02:00;3.85;;;0.82;;
55794;SDS011;41716;51.910;4.430;2023-05-18T07:07:02;4.45;;;0.90;;
55794;SDS011;41716;51.910;4.430;2023-05-18T07:12:04;4.97;;;0.80;;
55794;SDS011;41716;51.910;4.430;2023-05-18T07:17:08;5.07;;;0.82;;
55794;SDS011;41716;51.910;4.430;2023-05-18T07:22:10;7.00;;;0.90;;
55794;SDS011;41716;51.910;4.430;2023-05-18T07:27:12;4.68;;;0.93;;
55794;SDS011;41716;51.910;4.430;2023-05-18T07:32:15;6.22;;;1.10;;
55794;SDS011;41716;51.910;4.430;2023-05-18T07:37:16;4.30;;;1.08;;
55794;SDS011;41716;51.910;4.430;2023-05-18T07:42:18;4.40;;;0.80;;
55794;SDS011;41716;51.910;4.430;2023-05-18T07:47:21;3.70;;;1.00;;
55794;SDS011;41716;51.910;4.430;2023-05-18T07:52:23;4.70;;;0.98;;
55794;SDS011;41716;51.910;4.430;2023-05-18T07:57:24;2.85;;;0.80;;
55794;SDS011;41716;51.910;4.430;2023-05-18T08:02:27;5.30;;;0.88;;
55794;SDS011;41716;51.910;4.430;2023-05-18T08:07:30;6.65;;;1.20;;
55794;SDS011;41716;51.910;4.430;2023-05-18T08:12:32;4.15;;;1.10;;
55794;SDS011;41716;51.910;4.430;2023-05-18T08:17:35;3.47;;;1.25;;
55794;SDS011;41716;51.910;4.430;2023-05-18T08:22:37;8.07;;;1.38;;
55794;SDS011;41716;51.910;4.430;2023-05-18T08:27:38;4.85;;;1.10;;
55794;SDS011;41716;51.910;4.430;2023-05-18T08:32:41;3.33;;;1.23;;
55794;SDS011;41716;51.910;4.430;2023-05-18T08:37:43;5.20;;;1.00;;
55794;SDS011;41716;51.910;4.430;2023-05-18T08:42:46;5.57;;;1.40;;
55794;SDS011;41716;51.910;4.430;2023-05-18T08:47:52;6.10;;;1.27;;
55794;SDS011;41716;51.910;4.430;2023-05-18T08:52:58;4.28;;;1.08;;
55794;SDS011;41716;51.910;4.430;2023-05-18T08:58:02;6.57;;;1.15;;
55794;SDS011;41716;51.910;4.430;2023-05-18T09:03:07;5.40;;;1.10;;
55794;SDS011;41716;51.910;4.430;2023-05-18T09:08:09;3.50;;;0.80;;
55794;SDS011;41716;51.910;4.430;2023-05-18T09:13:11;6.38;;;1.20;;
55794;SDS011;41716;51.910;4.430;2023-05-18T09:18:18;4.32;;;1.15;;
55794;SDS011;41716;51.910;4.430;2023-05-18T09:23:20;5.75;;;1.30;;
55794;SDS011;41716;51.910;4.430;2023-05-18T09:28:25;6.55;;;0.98;;
55794;SDS011;41716;51.910;4.430;2023-05-18T09:33:32;3.90;;;0.98;;
55794;SDS011;41716;51.910;4.430;2023-05-18T09:38:35;9.98;;;1.40;;
55794;SDS011;41716;51.910;4.430;2023-05-18T09:43:38;5.78;;;1.48;;
55794;SDS011;41716;51.910;4.430;2023-05-18T09:48:41;5.10;;;1.20;;
55794;SDS011;41716;51.910;4.430;2023-05-18T09:53:46;8.60;;;1.60;;
55794;SDS011;41716;51.910;4.430;2023-05-18T09:58:48;4.03;;;1.08;;
55794;SDS011;41716;51.910;4.430;2023-05-18T10:03:51;5.85;;;1.20;;
55794;SDS011;41716;51.910;4.430;2023-05-18T10:09:03;4.63;;;1.63;;
55794;SDS011;41716;51.910;4.430;2023-05-18T10:14:15;3.58;;;1.20;;
55794;SDS011;41716;51.910;4.430;2023-05-18T10:19:18;6.82;;;1.00;;
55794;SDS011;41716;51.910;4.430;2023-05-18T10:24:21;2.47;;;0.90;;
55794;SDS011;41716;51.910;4.430;2023-05-18T10:29:24;7.28;;;1.13;;
55794;SDS011;41716;51.910;4.430;2023-05-18T10:34:28;3.90;;;1.30;;
55794;SDS011;41716;51.910;4.430;2023-05-18T10:44:34;6.38;;;1.20;;
55794;SDS011;41716;51.910;4.430;2023-05-18T10:49:37;5.25;;;1.20;;
55794;SDS011;41716;51.910;4.430;2023-05-18T10:54:42;5.55;;;1.25;;
55794;SDS011;41716;51.910;4.430;2023-05-18T10:59:45;5.45;;;1.30;;
55794;SDS011;41716;51.910;4.430;2023-05-18T11:04:48;5.43;;;1.20;;
55794;SDS011;41716;51.910;4.430;2023-05-18T11:14:54;4.55;;;1.33;;
55794;SDS011;41716;51.910;4.430;2023-05-18T11:20:11;6.93;;;1.33;;
55794;SDS011;41716;51.910;4.430;2023-05-18T11:35:54;4.80;;;1.35;;
55794;SDS011;41716;51.910;4.430;2023-05-18T11:41:06;5.38;;;1.25;;
55794;SDS011;41716;51.910;4.430;2023-05-18T11:46:09;4.07;;;1.35;;
55794;SDS011;41716;51.910;4.430;2023-05-18T11:51:20;4.55;;;1.17;;
55794;SDS011;41716;51.910;4.430;2023-05-18T11:56:24;3.95;;;1.42;;
55794;SDS011;41716;51.910;4.430;2023-05-18T12:01:26;4.05;;;1.23;;
55794;SDS011;41716;51.910;4.430;2023-05-18T12:11:33;4.57;;;1.52;;
55794;SDS011;41716;51.910;4.430;2023-05-18T12:16:35;5.47;;;1.20;;
55794;SDS011;41716;51.910;4.430;2023-05-18T12:21:40;3.97;;;1.10;;
55794;SDS011;41716;51.910;4.430;2023-05-18T12:26:42;4.28;;;1.20;;
55794;SDS011;41716;51.910;4.430;2023-05-18T12:31:46;5.85;;;1.33;;
55794;SDS011;41716;51.910;4.430;2023-05-18T12:36:52;6.45;;;1.38;;
55794;SDS011;41716;51.910;4.430;2023-05-18T12:42:06;5.47;;;1.52;;
55794;SDS011;41716;51.910;4.430;2023-05-18T12:47:09;3.92;;;1.20;;
55794;SDS011;41716;51.910;4.430;2023-05-18T12:52:13;8.05;;;1.75;;
55794;SDS011;41716;51.910;4.430;2023-05-18T12:57:16;4.68;;;1.50;;
55794;SDS011;41716;51.910;4.430;2023-05-18T13:02:26;5.32;;;1.73;;
55794;SDS011;41716;51.910;4.430;2023-05-18T13:07:31;7.05;;;1.83;;
55794;SDS011;41716;51.910;4.430;2023-05-18T13:12:39;6.45;;;1.38;;
55794;SDS011;41716;51.910;4.430;2023-05-18T13:23:06;6.20;;;1.40;;
55794;SDS011;41716;51.910;4.430;2023-05-18T13:28:09;5.05;;;1.60;;
55794;SDS011;41716;51.910;4.430;2023-05-18T13:33:11;4.78;;;1.50;;
55794;SDS011;41716;51.910;4.430;2023-05-18T13:38:14;3.63;;;1.08;;
55794;SDS011;41716;51.910;4.430;2023-05-18T13:43:16;4.90;;;1.20;;
55794;SDS011;41716;51.910;4.430;2023-05-18T13:48:18;4.72;;;1.58;;
55794;SDS011;41716;51.910;4.430;2023-05-18T13:53:21;7.03;;;1.50;;
55794;SDS011;41716;51.910;4.430;2023-05-18T13:58:22;4.90;;;1.40;;
55794;SDS011;41716;51.910;4.430;2023-05-18T14:03:24;7.25;;;1.77;;
55794;SDS011;41716;51.910;4.430;2023-05-18T14:08:27;3.80;;;1.50;;
55794;SDS011;41716;51.910;4.430;2023-05-18T14:13:29;5.80;;;1.75;;
55794;SDS011;41716;51.910;4.430;2023-05-18T14:18:30;6.50;;;1.35;;
55794;SDS011;41716;51.910;4.430;2023-05-18T14:23:33;4.30;;;1.40;;
55794;SDS011;41716;51.910;4.430;2023-05-18T14:28:35;4.32;;;1.48;;
55794;SDS011;41716;51.910;4.430;2023-05-18T14:33:37;5.82;;;1.50;;
55794;SDS011;41716;51.910;4.430;2023-05-18T14:38:40;5.38;;;1.40;;
55794;SDS011;41716;51.910;4.430;2023-05-18T14:43:42;4.78;;;1.60;;
55794;SDS011;41716;51.910;4.430;2023-05-18T14:48:45;3.23;;;1.07;;
55794;SDS011;41716;51.910;4.430;2023-05-18T14:53:48;8.52;;;1.52;;
55794;SDS011;41716;51.910;4.430;2023-05-18T14:58:50;4.53;;;1.43;;
55794;SDS011;41716;51.910;4.430;2023-05-18T15:03:51;3.75;;;1.30;;
55794;SDS011;41716;51.910;4.430;2023-05-18T15:08:54;3.80;;;1.13;;
55794;SDS011;41716;51.910;4.430;2023-05-18T15:13:56;6.05;;;1.45;;
55794;SDS011;41716;51.910;4.430;2023-05-18T15:18:58;6.18;;;1.20;;
55794;SDS011;41716;51.910;4.430;2023-05-18T15:24:01;3.67;;;1.35;;
55794;SDS011;41716;51.910;4.430;2023-05-18T15:29:02;6.10;;;1.60;;
55794;SDS011;41716;51.910;4.430;2023-05-18T15:34:04;6.30;;;1.33;;
55794;SDS011;41716;51.910;4.430;2023-05-18T15:39:07;3.65;;;1.60;;
55794;SDS011;41716;51.910;4.430;2023-05-18T15:44:09;4.53;;;1.53;;
55794;SDS011;41716;51.910;4.430;2023-05-18T15:49:11;3.80;;;1.70;;
55794;SDS011;41716;51.910;4.430;2023-05-18T15:54:15;3.25;;;1.30;;
55794;SDS011;41716;51.910;4.430;2023-05-18T15:59:16;5.13;;;1.33;;
55794;SDS011;41716;51.910;4.430;2023-05-18T16:04:18;5.30;;;1.20;;
55794;SDS011;41716;51.910;4.430;2023-05-18T16:09:21;4.53;;;1.50;;
55794;SDS011;41716;51.910;4.430;2023-05-18T16:14:23;3.92;;;1.40;;
55794;SDS011;41716;51.910;4.430;2023-05-18T16:19:25;4.22;;;1.40;;
55794;SDS011;41716;51.910;4.430;2023-05-18T16:24:28;6.85;;;1.52;;
55794;SDS011;41716;51.910;4.430;2023-05-18T16:29:29;6.63;;;1.53;;
55794;SDS011;41716;51.910;4.430;2023-05-18T16:34:31;5.03;;;1.60;;
55794;SDS011;41716;51.910;4.430;2023-05-18T16:39:34;4.95;;;1.83;;
55794;SDS011;41716;51.910;4.430;2023-05-18T16:44:36;3.50;;;1.33;;
55794;SDS011;41716;51.910;4.430;2023-05-18T16:49:37;3.20;;;1.50;;
55794;SDS011;41716;51.910;4.430;2023-05-18T16:54:40;4.60;;;2.08;;
55794;SDS011;41716;51.910;4.430;2023-05-18T16:59:42;5.43;;;1.90;;
55794;SDS011;41716;51.910;4.430;2023-05-18T17:04:44;4.15;;;1.30;;
55794;SDS011;41716;51.910;4.430;2023-05-18T17:09:49;3.70;;;1.45;;
55794;SDS011;41716;51.910;4.430;2023-05-18T17:14:51;5.00;;;1.40;;
55794;SDS011;41716;51.910;4.430;2023-05-18T17:19:53;3.33;;;1.23;;
55794;SDS011;41716;51.910;4.430;2023-05-18T17:24:56;4.75;;;1.65;;
55794;SDS011;41716;51.910;4.430;2023-05-18T17:29:58;3.33;;;1.10;;
55794;SDS011;41716;51.910;4.430;2023-05-18T17:34:59;4.10;;;1.60;;
55794;SDS011;41716;51.910;4.430;2023-05-18T17:40:04;6.15;;;1.73;;
55794;SDS011;41716;51.910;4.430;2023-05-18T17:45:09;5.57;;;1.67;;
55794;SDS011;41716;51.910;4.430;2023-05-18T17:50:10;2.83;;;1.23;;
55794;SDS011;41716;51.910;4.430;2023-05-18T17:55:14;5.80;;;1.38;;
55794;SDS011;41716;51.910;4.430;2023-05-18T18:00:16;6.03;;;1.40;;
55794;SDS011;41716;51.910;4.430;2023-05-18T18:05:18;4.90;;;1.25;;
55794;SDS011;41716;51.910;4.430;2023-05-18T18:10:22;3.53;;;1.38;;
55794;SDS011;41716;51.910;4.430;2023-05-18T18:15:23;4.93;;;1.30;;
55794;SDS011;41716;51.910;4.430;2023-05-18T18:20:27;6.30;;;1.45;;
55794;SDS011;41716;51.910;4.430;2023-05-18T18:25:31;4.07;;;1.40;;
55794;SDS011;41716;51.910;4.430;2023-05-18T18:30:33;6.00;;;1.40;;
55794;SDS011;41716;51.910;4.430;2023-05-18T18:35:35;3.97;;;1.35;;
55794;SDS011;41716;51.910;4.430;2023-05-18T18:40:38;3.90;;;1.10;;
55794;SDS011;41716;51.910;4.430;2023-05-18T18:45:40;6.68;;;1.20;;
55794;SDS011;41716;51.910;4.430;2023-05-18T18:50:41;4.70;;;1.20;;
55794;SDS011;41716;51.910;4.430;2023-05-18T18:55:44;2.13;;;1.00;;
55794;SDS011;41716;51.910;4.430;2023-05-18T19:00:46;3.85;;;1.20;;
55794;SDS011;41716;51.910;4.430;2023-05-18T19:05:48;3.45;;;1.20;;
55794;SDS011;41716;51.910;4.430;2023-05-18T19:10:52;4.25;;;1.10;;
55794;SDS011;41716;51.910;4.430;2023-05-18T19:15:54;3.47;;;1.13;;
55794;SDS011;41716;51.910;4.430;2023-05-18T19:20:57;5.00;;;1.10;;
55794;SDS011;41716;51.910;4.430;2023-05-18T19:26:01;3.30;;;1.20;;
55794;SDS011;41716;51.910;4.430;2023-05-18T19:31:03;2.40;;;1.07;;
55794;SDS011;41716;51.910;4.430;2023-05-18T19:36:04;4.35;;;1.10;;
55794;SDS011;41716;51.910;4.430;2023-05-18T19:41:08;3.80;;;1.40;;
55794;SDS011;41716;51.910;4.430;2023-05-18T19:46:09;4.75;;;1.30;;
55794;SDS011;41716;51.910;4.430;2023-05-18T19:51:11;2.78;;;1.40;;
55794;SDS011;41716;51.910;4.430;2023-05-18T19:56:14;3.90;;;1.30;;
55794;SDS011;41716;51.910;4.430;2023-05-18T20:01:16;3.60;;;1.33;;
55794;SDS011;41716;51.910;4.430;2023-05-18T20:06:18;5.00;;;1.40;;
55794;SDS011;41716;51.910;4.430;2023-05-18T20:11:22;5.75;;;1.33;;
55794;SDS011;41716;51.910;4.430;2023-05-18T20:16:24;9.27;;;1.92;;
55794;SDS011;41716;51.910;4.430;2023-05-18T20:26:32;6.03;;;1.25;;
55794;SDS011;41716;51.910;4.430;2023-05-18T20:31:34;7.40;;;1.80;;
55794;SDS011;41716;51.910;4.430;2023-05-18T20:36:36;5.90;;;1.25;;
55794;SDS011;41716;51.910;4.430;2023-05-18T20:41:39;5.63;;;1.92;;
55794;SDS011;41716;51.910;4.430;2023-05-18T20:46:41;6.90;;;1.83;;
55794;SDS011;41716;51.910;4.430;2023-05-18T20:51:43;8.20;;;2.00;;
55794;SDS011;41716;51.910;4.430;2023-05-18T20:56:46;8.32;;;2.03;;
55794;SDS011;41716;51.910;4.430;2023-05-18T21:01:48;4.60;;;1.47;;
55794;SDS011;41716;51.910;4.430;2023-05-18T21:06:53;5.20;;;1.50;;
55794;SDS011;41716;51.910;4.430;2023-05-18T21:11:56;3.38;;;1.50;;
55794;SDS011;41716;51.910;4.430;2023-05-18T21:16:58;5.00;;;1.92;;
55794;SDS011;41716;51.910;4.430;2023-05-18T21:22:00;5.60;;;2.03;;
55794;SDS011;41716;51.910;4.430;2023-05-18T21:27:04;6.20;;;1.73;;
55794;SDS011;41716;51.910;4.430;2023-05-18T21:32:06;5.22;;;1.83;;
55794;SDS011;41716;51.910;4.430;2023-05-18T21:37:08;6.85;;;2.17;;
55794;SDS011;41716;51.910;4.430;2023-05-18T21:42:11;5.65;;;2.03;;
55794;SDS011;41716;51.910;4.430;2023-05-18T21:47:13;6.55;;;1.95;;
55794;SDS011;41716;51.910;4.430;2023-05-18T21:52:15;4.10;;;1.88;;
55794;SDS011;41716;51.910;4.430;2023-05-18T21:57:18;5.53;;;2.00;;
55794;SDS011;41716;51.910;4.430;2023-05-18T22:02:20;4.27;;;2.07;;
55794;SDS011;41716;51.910;4.430;2023-05-18T22:07:22;5.22;;;1.58;;
55794;SDS011;41716;51.910;4.430;2023-05-18T22:12:25;6.93;;;1.98;;
55794;SDS011;41716;51.910;4.430;2023-05-18T22:17:26;5.57;;;1.93;;
55794;SDS011;41716;51.910;4.430;2023-05-18T22:22:28;6.00;;;2.10;;
55794;SDS011;41716;51.910;4.430;2023-05-18T22:27:31;5.32;;;2.28;;
55794;SDS011;41716;51.910;4.430;2023-05-18T22:32:35;4.55;;;1.70;;
55794;SDS011;41716;51.910;4.430;2023-05-18T22:37:37;4.72;;;1.58;;
55794;SDS011;41716;51.910;4.430;2023-05-18T22:42:40;4.40;;;1.80;;
55794;SDS011;41716;51.910;4.430;2023-05-18T22:47:42;4.05;;;1.60;;
55794;SDS011;41716;51.910;4.430;2023-05-18T22:52:45;4.50;;;1.45;;
55794;SDS011;41716;51.910;4.430;2023-05-18T22:57:48;4.95;;;1.25;;
55794;SDS011;41716;51.910;4.430;2023-05-18T23:02:50;3.13;;;1.53;;
55794;SDS011;41716;51.910;4.430;2023-05-18T23:07:52;3.55;;;1.40;;
55794;SDS011;41716;51.910;4.430;2023-05-18T23:12:58;4.05;;;1.73;;
55794;SDS011;41716;51.910;4.430;2023-05-18T23:17:59;3.63;;;1.33;;
55794;SDS011;41716;51.910;4.430;2023-05-18T23:23:01;3.28;;;1.30;;
55794;SDS011;41716;51.910;4.430;2023-05-18T23:28:05;4.55;;;1.35;;
55794;SDS011;41716;51.910;4.430;2023-05-18T23:33:06;4.17;;;1.20;;
55794;SDS011;41716;51.910;4.430;2023-05-18T23:38:09;6.05;;;1.50;;
55794;SDS011;41716;51.910;4.430;2023-05-18T23:43:19;3.97;;;1.13;;
55794;SDS011;41716;51.910;4.430;2023-05-18T23:48:21;3.92;;;1.50;;
55794;SDS011;41716;51.910;4.430;2023-05-18T23:53:23;4.35;;;1.38;;
55794;SDS011;41716;51.910;4.430;2023-05-18T23:58:30;3.97;;;1.45;;
